Time;durP1;ratioP1;P1;durP2;ratioP2;P2;SDS_P1;SDS_P2;PMS_P1;PMS_P2;Temp;Humidity;BMP_temperature;BMP_pressure;BME280_temperature;BME280_humidity;BME280_pressure;Samples;Min_cycle;Max_cycle;Signal;HPM_P1;HPM_P2
2023/05/05 00:01:06;;;;;;;10.40;6.95;;;;;;;;;;5068098;27;99651;-79
2023/05/05 00:03:36;;;;;;;8.65;7.25;;;;;;;;;;5068466;27;98859;-78
2023/05/05 00:06:04;;;;;;;17.15;7.88;;;;;;;;;;5074648;27;98344;-78
2023/05/05 00:08:30;;;;;;;8.48;7.20;;;;;;;;;;5071605;27;99932;-79
2023/05/05 00:10:57;;;;;;;10.90;7.70;;;;;;;;;;5071801;27;98211;-79
2023/05/05 00:13:23;;;;;;;8.70;7.00;;;;;;;;;;5070629;27;98600;-79
2023/05/05 00:15:51;;;;;;;17.35;7.32;;;;;;;;;;5070591;27;99087;-79
2023/05/05 00:18:18;;;;;;;7.82;7.13;;;;;;;;;;5063531;27;98187;-80
2023/05/05 00:20:48;;;;;;;7.95;7.03;;;;;;;;;;5071075;27;99841;-79
2023/05/05 00:23:17;;;;;;;11.35;7.60;;;;;;;;;;5070695;27;98897;-79
2023/05/05 00:25:44;;;;;;;7.93;6.95;;;;;;;;;;5071354;27;98290;-78
2023/05/05 00:28:12;;;;;;;9.38;7.60;;;;;;;;;;5073584;27;100099;-79
2023/05/05 00:30:39;;;;;;;8.45;7.03;;;;;;;;;;5071420;27;98591;-80
2023/05/05 00:33:05;;;;;;;10.23;7.47;;;;;;;;;;5070734;27;98696;-79
2023/05/05 00:35:32;;;;;;;20.85;7.70;;;;;;;;;;5068747;27;101873;-79
2023/05/05 00:37:58;;;;;;;10.07;7.18;;;;;;;;;;5071499;27;98150;-78
2023/05/05 00:40:25;;;;;;;14.75;7.15;;;;;;;;;;5069742;27;99934;-80
2023/05/05 00:42:52;;;;;;;12.80;8.05;;;;;;;;;;5070248;27;100005;-79
2023/05/05 00:45:19;;;;;;;8.27;7.50;;;;;;;;;;5070881;27;98237;-79
2023/05/05 00:47:56;;;;;;;13.20;7.72;;;;;;;;;;5061354;27;101101;-79
2023/05/05 00:50:23;;;;;;;13.05;7.88;;;;;;;;;;5073222;27;99938;-81
2023/05/05 00:52:51;;;;;;;9.85;7.25;;;;;;;;;;5062315;27;98691;-80
2023/05/05 00:55:18;;;;;;;8.15;7.50;;;;;;;;;;5070093;27;99669;-79
2023/05/05 00:57:44;;;;;;;9.70;7.45;;;;;;;;;;5071327;27;98248;-79
2023/05/05 01:00:11;;;;;;;15.77;6.85;;;;;;;;;;5069117;27;101130;-80
2023/05/05 01:02:38;;;;;;;9.35;6.95;;;;;;;;;;5069672;27;99042;-79
2023/05/05 01:05:07;;;;;;;12.45;7.30;;;;;;;;;;5069835;27;99213;-78
2023/05/05 01:07:43;;;;;;;9.13;7.10;;;;;;;;;;5068552;27;100756;-79
2023/05/05 01:10:09;;;;;;;11.73;7.07;;;;;;;;;;5061434;27;98844;-81
2023/05/05 01:13:04;;;;;;;9.13;8.18;;;;;;;;;;5066254;27;98090;-80
2023/05/05 01:15:32;;;;;;;12.70;7.80;;;;;;;;;;5064221;27;98992;-79
2023/05/05 01:18:08;;;;;;;9.52;8.57;;;;;;;;;;5069414;27;98337;-79
2023/05/05 01:20:48;;;;;;;9.85;8.70;;;;;;;;;;5070235;27;100678;-80
2023/05/05 01:23:21;;;;;;;12.77;8.73;;;;;;;;;;5069096;27;101807;-78
2023/05/05 01:26:01;;;;;;;26.42;8.98;;;;;;;;;;5070696;27;98446;-79
2023/05/05 01:28:33;;;;;;;13.38;10.18;;;;;;;;;;5062296;27;98450;-80
2023/05/05 01:31:07;;;;;;;12.88;10.70;;;;;;;;;;5069246;27;98917;-79
2023/05/05 01:33:35;;;;;;;15.75;9.90;;;;;;;;;;5073606;27;98309;-79
2023/05/05 01:36:06;;;;;;;14.00;10.57;;;;;;;;;;5068950;27;100165;-81
2023/05/05 01:38:36;;;;;;;14.30;10.55;;;;;;;;;;5069234;27;99399;-80
2023/05/05 01:41:06;;;;;;;11.38;10.20;;;;;;;;;;5063392;27;98795;-81
2023/05/05 01:43:34;;;;;;;14.57;10.85;;;;;;;;;;5067641;27;101299;-80
2023/05/05 01:46:01;;;;;;;13.48;11.07;;;;;;;;;;5068694;27;98363;-80
2023/05/05 01:48:29;;;;;;;12.13;10.93;;;;;;;;;;5068767;27;100906;-79
2023/05/05 01:50:56;;;;;;;15.02;9.77;;;;;;;;;;5067813;27;101068;-80
2023/05/05 01:53:22;;;;;;;14.95;11.10;;;;;;;;;;5069395;27;98225;-79
2023/05/05 01:55:49;;;;;;;14.80;10.80;;;;;;;;;;5072077;27;98496;-81
2023/05/05 01:58:16;;;;;;;14.15;10.57;;;;;;;;;;5063971;27;98337;-80
2023/05/05 02:00:46;;;;;;;11.45;10.45;;;;;;;;;;5067531;27;100514;-81
2023/05/05 02:03:13;;;;;;;12.20;11.10;;;;;;;;;;5069220;27;98874;-80
2023/05/05 02:05:40;;;;;;;15.40;10.15;;;;;;;;;;5068669;27;98199;-80
2023/05/05 02:08:08;;;;;;;13.95;9.93;;;;;;;;;;5069954;27;98839;-80
2023/05/05 02:10:36;;;;;;;11.57;10.45;;;;;;;;;;5069605;27;98875;-79
2023/05/05 02:13:03;;;;;;;10.65;9.43;;;;;;;;;;5069421;27;98315;-79
2023/05/05 02:15:30;;;;;;;11.05;9.95;;;;;;;;;;5068159;27;100991;-79
2023/05/05 02:17:57;;;;;;;11.65;9.43;;;;;;;;;;5071110;27;101527;-79
2023/05/05 02:20:24;;;;;;;10.38;9.20;;;;;;;;;;5068023;27;98263;-80
2023/05/05 02:22:50;;;;;;;17.55;9.52;;;;;;;;;;5069579;27;98969;-79
2023/05/05 02:25:17;;;;;;;13.07;9.13;;;;;;;;;;5068572;27;98583;-80
2023/05/05 02:27:45;;;;;;;11.88;9.10;;;;;;;;;;5066977;27;100996;-80
2023/05/05 02:30:13;;;;;;;13.82;8.85;;;;;;;;;;5069234;27;99303;-80
2023/05/05 02:32:44;;;;;;;11.55;9.15;;;;;;;;;;5069102;27;98200;-79
2023/05/05 02:35:15;;;;;;;9.88;8.60;;;;;;;;;;5067329;27;100664;-80
2023/05/05 02:37:47;;;;;;;9.73;8.15;;;;;;;;;;5062856;27;101299;-79
2023/05/05 02:40:15;;;;;;;10.63;8.30;;;;;;;;;;5049503;27;98273;-80
2023/05/05 02:42:43;;;;;;;11.50;9.30;;;;;;;;;;5056540;27;100711;-80
2023/05/05 02:45:18;;;;;;;11.05;7.93;;;;;;;;;;5063882;27;98612;-81
2023/05/05 02:47:47;;;;;;;10.55;8.18;;;;;;;;;;5068373;27;101404;-80
2023/05/05 02:50:14;;;;;;;8.18;7.47;;;;;;;;;;5069098;27;101230;-80
2023/05/05 02:52:48;;;;;;;9.00;8.10;;;;;;;;;;5072849;27;98307;-80
2023/05/05 02:55:18;;;;;;;10.07;7.72;;;;;;;;;;5072160;27;100831;-80
2023/05/05 02:58:05;;;;;;;9.35;8.25;;;;;;;;;;5071554;27;100561;-81
2023/05/05 03:00:39;;;;;;;8.10;7.35;;;;;;;;;;5068118;27;98456;-80
2023/05/05 03:03:12;;;;;;;7.28;6.60;;;;;;;;;;5070325;27;101097;-80
2023/05/05 03:05:44;;;;;;;9.85;6.95;;;;;;;;;;5067796;27;98284;-80
2023/05/05 03:08:25;;;;;;;7.00;6.35;;;;;;;;;;5050772;27;100977;-78
2023/05/05 03:10:57;;;;;;;5.18;4.78;;;;;;;;;;5065960;27;102378;-80
2023/05/05 03:13:25;;;;;;;5.20;4.72;;;;;;;;;;5067269;27;98202;-79
2023/05/05 03:15:52;;;;;;;5.85;5.30;;;;;;;;;;5067630;27;98185;-80
2023/05/05 03:18:23;;;;;;;5.32;4.75;;;;;;;;;;5053904;27;98910;-80
2023/05/05 03:20:55;;;;;;;5.13;4.65;;;;;;;;;;5065593;27;98328;-79
2023/05/05 03:23:22;;;;;;;10.90;4.63;;;;;;;;;;5066564;27;100918;-79
2023/05/05 03:25:54;;;;;;;5.57;4.23;;;;;;;;;;5070195;27;98921;-79
2023/05/05 03:28:30;;;;;;;4.43;4.13;;;;;;;;;;5067457;27;98533;-79
2023/05/05 03:31:01;;;;;;;4.43;3.60;;;;;;;;;;5067115;27;99959;-79
2023/05/05 03:33:29;;;;;;;5.95;3.83;;;;;;;;;;5067041;27;98290;-79
2023/05/05 03:35:58;;;;;;;4.38;4.07;;;;;;;;;;5067237;27;98578;-80
2023/05/05 03:38:25;;;;;;;8.30;3.92;;;;;;;;;;5067271;27;99366;-80
2023/05/05 03:40:53;;;;;;;5.15;3.80;;;;;;;;;;5067169;27;98265;-81
2023/05/05 03:43:21;;;;;;;5.05;4.45;;;;;;;;;;5066774;27;101327;-79
2023/05/05 03:45:49;;;;;;;4.53;3.58;;;;;;;;;;5068841;27;99521;-79
2023/05/05 03:48:16;;;;;;;4.18;3.88;;;;;;;;;;5065575;27;98557;-79
2023/05/05 03:50:47;;;;;;;4.47;4.07;;;;;;;;;;5066325;27;98932;-80
2023/05/05 03:53:15;;;;;;;4.90;4.40;;;;;;;;;;5066953;27;99900;-78
2023/05/05 03:55:42;;;;;;;4.30;4.07;;;;;;;;;;5058423;27;100585;-78
2023/05/05 03:58:10;;;;;;;4.53;4.00;;;;;;;;;;5065699;27;99904;-79
2023/05/05 04:00:36;;;;;;;5.05;4.50;;;;;;;;;;5067248;27;98226;-79
2023/05/05 04:03:03;;;;;;;5.55;5.07;;;;;;;;;;5066277;27;100789;-80
2023/05/05 04:05:30;;;;;;;6.13;5.53;;;;;;;;;;5067413;27;99407;-78
2023/05/05 04:08:00;;;;;;;6.10;5.60;;;;;;;;;;5057675;27;98349;-81
2023/05/05 04:10:26;;;;;;;5.75;5.25;;;;;;;;;;5062251;27;101024;-79
2023/05/05 04:12:53;;;;;;;6.03;5.43;;;;;;;;;;5067481;27;98676;-80
2023/05/05 04:15:19;;;;;;;6.43;5.72;;;;;;;;;;5066254;27;99589;-78
2023/05/05 04:17:46;;;;;;;6.03;5.57;;;;;;;;;;5066131;27;99019;-80
2023/05/05 04:20:13;;;;;;;8.38;6.13;;;;;;;;;;5065959;27;98652;-80
2023/05/05 04:22:39;;;;;;;9.57;6.20;;;;;;;;;;5065870;27;100412;-80
2023/05/05 04:25:08;;;;;;;7.22;6.50;;;;;;;;;;5074248;27;101017;-79
2023/05/05 04:27:34;;;;;;;6.63;6.10;;;;;;;;;;5065463;27;98432;-80
2023/05/05 04:30:01;;;;;;;7.68;6.10;;;;;;;;;;5069599;27;98487;-78
2023/05/05 04:32:29;;;;;;;6.97;6.43;;;;;;;;;;5067711;27;98378;-80
2023/05/05 04:34:56;;;;;;;10.95;6.65;;;;;;;;;;5067093;27;98439;-80
2023/05/05 04:37:24;;;;;;;8.68;6.15;;;;;;;;;;5066042;27;101395;-79
2023/05/05 04:39:51;;;;;;;8.48;5.85;;;;;;;;;;5066205;27;98304;-80
2023/05/05 04:42:17;;;;;;;6.50;5.90;;;;;;;;;;5064793;27;100946;-80
2023/05/05 04:44:44;;;;;;;9.80;6.60;;;;;;;;;;5067346;27;98837;-80
2023/05/05 04:47:10;;;;;;;7.97;6.85;;;;;;;;;;5067711;27;98255;-80
2023/05/05 04:49:40;;;;;;;10.35;7.15;;;;;;;;;;5066284;27;101333;-80
2023/05/05 04:52:06;;;;;;;7.65;6.80;;;;;;;;;;5073069;27;101511;-79
2023/05/05 04:54:34;;;;;;;9.50;6.97;;;;;;;;;;5068708;27;100063;-80
2023/05/05 04:57:01;;;;;;;10.35;6.97;;;;;;;;;;5068351;27;100075;-80
2023/05/05 04:59:27;;;;;;;9.80;6.65;;;;;;;;;;5065949;27;98426;-80
2023/05/05 05:01:54;;;;;;;8.70;7.53;;;;;;;;;;5071048;27;100855;-79
2023/05/05 05:04:22;;;;;;;8.35;6.70;;;;;;;;;;5069580;27;98894;-80
2023/05/05 05:06:49;;;;;;;9.60;7.38;;;;;;;;;;5069502;27;98261;-79
2023/05/05 05:09:16;;;;;;;11.95;7.40;;;;;;;;;;5068620;27;100094;-79
2023/05/05 05:11:43;;;;;;;10.20;7.70;;;;;;;;;;5069171;27;100130;-80
2023/05/05 05:14:10;;;;;;;8.60;7.90;;;;;;;;;;5073684;27;99055;-79
2023/05/05 05:16:36;;;;;;;9.43;7.43;;;;;;;;;;5069633;27;99083;-80
2023/05/05 05:19:04;;;;;;;10.68;8.27;;;;;;;;;;5069485;27;98394;-78
2023/05/05 05:21:31;;;;;;;11.40;8.30;;;;;;;;;;5068524;27;100900;-79
2023/05/05 05:23:58;;;;;;;15.70;9.65;;;;;;;;;;5068349;27;101450;-80
2023/05/05 05:26:25;;;;;;;12.02;8.50;;;;;;;;;;5068696;27;98225;-79
2023/05/05 05:28:52;;;;;;;11.07;9.15;;;;;;;;;;5069691;27;99073;-79
2023/05/05 05:31:18;;;;;;;20.45;10.10;;;;;;;;;;5069225;27;98780;-79
2023/05/05 05:33:45;;;;;;;10.85;8.95;;;;;;;;;;5069423;27;98482;-79
2023/05/05 05:36:14;;;;;;;17.95;10.10;;;;;;;;;;5073303;27;99594;-79
2023/05/05 05:38:40;;;;;;;12.90;10.02;;;;;;;;;;5073503;27;98375;-79
2023/05/05 05:41:07;;;;;;;12.10;10.18;;;;;;;;;;5062992;27;100886;-79
2023/05/05 05:43:36;;;;;;;12.73;10.50;;;;;;;;;;5063498;27;101794;-79
2023/05/05 05:46:03;;;;;;;16.33;11.15;;;;;;;;;;5065349;27;98223;-80
2023/05/05 05:48:32;;;;;;;16.33;11.27;;;;;;;;;;5062046;27;101349;-79
2023/05/05 05:50:58;;;;;;;16.60;11.90;;;;;;;;;;5069653;27;99015;-79
2023/05/05 05:53:25;;;;;;;19.05;11.95;;;;;;;;;;5069575;27;98434;-79
2023/05/05 05:55:52;;;;;;;20.73;12.38;;;;;;;;;;5067270;27;98255;-79
2023/05/05 05:58:19;;;;;;;16.98;11.48;;;;;;;;;;5066831;27;98191;-80
2023/05/05 06:00:46;;;;;;;19.88;11.40;;;;;;;;;;5067359;27;99502;-78
2023/05/05 06:03:13;;;;;;;25.55;11.98;;;;;;;;;;5065795;27;101093;-79
2023/05/05 06:05:41;;;;;;;16.05;11.20;;;;;;;;;;5065452;27;98337;-79
2023/05/05 06:08:08;;;;;;;15.77;11.07;;;;;;;;;;5067722;27;99723;-79
2023/05/05 06:10:40;;;;;;;14.90;11.10;;;;;;;;;;5067106;27;100372;-79
2023/05/05 06:13:12;;;;;;;;;;;;;;;;;;5064054;27;98647;-77
2023/05/05 06:15:42;;;;;;;15.63;9.40;;;;;;;;;;5068462;27;101887;-77
2023/05/05 06:18:11;;;;;;;11.80;9.77;;;;;;;;;;5066955;27;101157;-79
2023/05/05 06:20:38;;;;;;;17.55;9.40;;;;;;;;;;5066247;27;98290;-78
2023/05/05 06:23:04;;;;;;;11.50;7.72;;;;;;;;;;5068781;27;99087;-77
2023/05/05 06:25:34;;;;;;;10.00;8.43;;;;;;;;;;5063776;27;98662;-77
2023/05/05 06:28:01;;;;;;;11.02;8.43;;;;;;;;;;5065792;27;99450;-79
2023/05/05 06:30:27;;;;;;;10.63;8.55;;;;;;;;;;5067059;27;99983;-78
2023/05/05 06:32:54;;;;;;;14.73;8.15;;;;;;;;;;5066972;27;98216;-79
2023/05/05 06:35:21;;;;;;;11.65;8.27;;;;;;;;;;5068182;27;99375;-79
2023/05/05 06:37:47;;;;;;;14.75;9.07;;;;;;;;;;5069081;27;100155;-79
2023/05/05 06:40:14;;;;;;;11.07;8.20;;;;;;;;;;5064069;27;99609;-78
2023/05/05 06:42:40;;;;;;;10.82;7.93;;;;;;;;;;5068616;27;98891;-78
2023/05/05 06:45:12;;;;;;;8.57;7.25;;;;;;;;;;5069844;27;98131;-78
2023/05/05 06:47:39;;;;;;;11.00;7.28;;;;;;;;;;5067937;27;98987;-78
2023/05/05 06:50:06;;;;;;;11.48;7.65;;;;;;;;;;5065459;27;99954;-78
2023/05/05 06:52:32;;;;;;;15.48;7.32;;;;;;;;;;5067960;27;98700;-77
2023/05/05 06:54:59;;;;;;;14.18;7.13;;;;;;;;;;5068444;27;99821;-78
2023/05/05 06:57:25;;;;;;;10.15;7.20;;;;;;;;;;5061016;27;99188;-78
2023/05/05 06:59:52;;;;;;;9.63;6.20;;;;;;;;;;5058978;27;100135;-78
2023/05/05 07:02:19;;;;;;;8.80;6.18;;;;;;;;;;5068774;27;99270;-79
2023/05/05 07:04:45;;;;;;;9.70;6.20;;;;;;;;;;5065566;27;98812;-79
2023/05/05 07:07:11;;;;;;;12.75;6.63;;;;;;;;;;5065288;27;98562;-79
2023/05/05 07:09:41;;;;;;;9.90;6.75;;;;;;;;;;5058894;27;99828;-79
2023/05/05 07:12:07;;;;;;;12.25;6.75;;;;;;;;;;5068231;27;98578;-79
2023/05/05 07:14:33;;;;;;;11.73;6.50;;;;;;;;;;5054837;27;98532;-80
2023/05/05 07:17:00;;;;;;;8.45;6.95;;;;;;;;;;5066912;27;98924;-78
2023/05/05 07:19:26;;;;;;;9.25;5.95;;;;;;;;;;5060603;27;98249;-77
2023/05/05 07:21:53;;;;;;;8.93;6.00;;;;;;;;;;5068469;27;98640;-78
2023/05/05 07:24:19;;;;;;;10.88;6.30;;;;;;;;;;5064184;27;100322;-78
2023/05/05 07:26:46;;;;;;;12.45;5.53;;;;;;;;;;5065126;27;99655;-78
2023/05/05 07:29:12;;;;;;;8.43;5.57;;;;;;;;;;5061742;27;98965;-78
2023/05/05 07:31:38;;;;;;;8.15;5.07;;;;;;;;;;5066909;27;98247;-79
2023/05/05 07:34:05;;;;;;;8.85;4.95;;;;;;;;;;5068962;27;99365;-79
2023/05/05 07:36:31;;;;;;;12.10;5.35;;;;;;;;;;5067220;27;100141;-78
2023/05/05 07:38:59;;;;;;;9.40;4.90;;;;;;;;;;5069185;27;98782;-78
2023/05/05 07:41:26;;;;;;;6.88;5.47;;;;;;;;;;5068244;27;102168;-78
2023/05/05 07:43:52;;;;;;;7.13;5.40;;;;;;;;;;5067650;27;99950;-79
2023/05/05 07:46:18;;;;;;;6.85;4.90;;;;;;;;;;5067923;27;100614;-79
2023/05/05 07:48:45;;;;;;;9.27;4.80;;;;;;;;;;5064540;27;100076;-79
2023/05/05 07:51:11;;;;;;;7.65;5.38;;;;;;;;;;5068193;27;98152;-79
2023/05/05 07:53:39;;;;;;;6.32;5.07;;;;;;;;;;5064505;27;98604;-77
2023/05/05 07:56:07;;;;;;;13.23;5.38;;;;;;;;;;5060087;27;100021;-78
2023/05/05 07:58:34;;;;;;;12.00;5.60;;;;;;;;;;5062743;27;98429;-78
2023/05/05 08:01:01;;;;;;;7.82;5.28;;;;;;;;;;5067924;27;98544;-78
2023/05/05 08:03:27;;;;;;;9.55;5.65;;;;;;;;;;5068013;27;99854;-78
2023/05/05 08:05:54;;;;;;;8.27;5.13;;;;;;;;;;5068514;27;98308;-77
2023/05/05 08:08:23;;;;;;;7.32;4.50;;;;;;;;;;5068674;27;99431;-79
2023/05/05 08:10:51;;;;;;;7.15;3.90;;;;;;;;;;5068364;27;98218;-78
2023/05/05 08:13:18;;;;;;;6.72;3.90;;;;;;;;;;5067112;27;99680;-77
2023/05/05 08:15:44;;;;;;;7.07;4.15;;;;;;;;;;5067735;27;100111;-78
2023/05/05 08:18:11;;;;;;;4.15;3.60;;;;;;;;;;5067699;27;100217;-79
2023/05/05 08:20:38;;;;;;;4.70;3.75;;;;;;;;;;5066854;27;99489;-78
2023/05/05 08:23:04;;;;;;;15.18;4.28;;;;;;;;;;5060861;27;99973;-78
2023/05/05 08:25:31;;;;;;;5.03;3.38;;;;;;;;;;5069662;27;98328;-79
2023/05/05 08:27:57;;;;;;;7.95;3.60;;;;;;;;;;5074353;27;100052;-77
2023/05/05 08:30:24;;;;;;;4.72;3.45;;;;;;;;;;5070376;27;98265;-78
2023/05/05 08:32:50;;;;;;;5.00;3.47;;;;;;;;;;5070055;27;98764;-78
2023/05/05 08:35:16;;;;;;;5.38;3.40;;;;;;;;;;5070384;27;100142;-77
2023/05/05 08:37:43;;;;;;;5.95;3.20;;;;;;;;;;5071377;27;98355;-78
2023/05/05 08:40:14;;;;;;;6.20;3.17;;;;;;;;;;5070443;27;99392;-79
2023/05/05 08:42:41;;;;;;;3.08;2.47;;;;;;;;;;5071184;27;100053;-78
2023/05/05 08:45:08;;;;;;;7.32;2.58;;;;;;;;;;5070898;27;98307;-78
2023/05/05 08:47:36;;;;;;;4.65;2.22;;;;;;;;;;5062585;27;98572;-78
2023/05/05 08:50:04;;;;;;;3.05;2.60;;;;;;;;;;5073788;27;100364;-79
2023/05/05 08:52:36;;;;;;;6.03;2.72;;;;;;;;;;5061483;27;98503;-79
2023/05/05 08:55:02;;;;;;;;;;;;;;;;;;5069261;27;99041;-78
2023/05/05 08:57:37;;;;;;;7.90;2.50;;;;;;;;;;5069216;27;126229;-78
2023/05/05 09:00:04;;;;;;;8.25;2.08;;;;;;;;;;5071428;27;98390;-78
2023/05/05 09:02:31;;;;;;;6.63;2.33;;;;;;;;;;5069388;27;100180;-79
2023/05/05 09:04:59;;;;;;;2.97;2.00;;;;;;;;;;5070482;27;98218;-79
2023/05/05 09:07:27;;;;;;;6.68;2.08;;;;;;;;;;5070349;27;99020;-79
2023/05/05 09:09:53;;;;;;;3.88;1.90;;;;;;;;;;5069665;27;99562;-79
2023/05/05 09:12:20;;;;;;;5.20;2.38;;;;;;;;;;5073802;27;98276;-78
2023/05/05 09:14:46;;;;;;;2.67;2.10;;;;;;;;;;5069095;27;99056;-79
2023/05/05 09:17:23;;;;;;;4.93;2.45;;;;;;;;;;5070207;27;98418;-78
2023/05/05 09:20:05;;;;;;;4.15;2.80;;;;;;;;;;5062200;27;99673;-78
2023/05/05 09:22:33;;;;;;;5.90;2.90;;;;;;;;;;5069131;27;99843;-79
2023/05/05 09:24:59;;;;;;;7.78;2.80;;;;;;;;;;5070511;27;98272;-80
2023/05/05 09:27:26;;;;;;;5.63;2.67;;;;;;;;;;5069659;27;98742;-79
2023/05/05 09:29:53;;;;;;;7.72;2.67;;;;;;;;;;5061564;27;99954;-80
2023/05/05 09:32:19;;;;;;;6.45;3.50;;;;;;;;;;5070822;27;98229;-79
2023/05/05 09:34:55;;;;;;;5.90;2.92;;;;;;;;;;5073291;27;98717;-79
2023/05/05 09:37:29;;;;;;;6.18;3.28;;;;;;;;;;5070721;27;98164;-80
2023/05/05 09:39:57;;;;;;;13.43;3.50;;;;;;;;;;5071250;27;99708;-79
2023/05/05 09:42:23;;;;;;;6.30;3.03;;;;;;;;;;5073456;27;98062;-80
2023/05/05 09:44:50;;;;;;;7.55;3.65;;;;;;;;;;5068775;27;98248;-79
2023/05/05 09:47:17;;;;;;;8.25;3.22;;;;;;;;;;5069860;27;98900;-80
2023/05/05 09:49:55;;;;;;;8.88;3.20;;;;;;;;;;5067633;27;99325;-79
2023/05/05 09:52:22;;;;;;;4.03;3.28;;;;;;;;;;5069429;27;98312;-79
2023/05/05 09:54:52;;;;;;;4.78;3.22;;;;;;;;;;5069980;27;99861;-79
2023/05/05 09:57:30;;;;;;;5.85;3.13;;;;;;;;;;5071932;27;98647;-78
2023/05/05 09:59:58;;;;;;;5.18;2.90;;;;;;;;;;5064096;27;100052;-80
2023/05/05 10:02:31;;;;;;;4.57;2.97;;;;;;;;;;5072067;27;98914;-79
2023/05/05 10:05:04;;;;;;;4.63;3.50;;;;;;;;;;5068976;27;98334;-77
2023/05/05 10:07:32;;;;;;;9.52;3.33;;;;;;;;;;5069868;27;99454;-80
2023/05/05 10:09:58;;;;;;;5.65;3.35;;;;;;;;;;5067649;27;99295;-78
2023/05/05 10:12:25;;;;;;;3.72;3.15;;;;;;;;;;5069170;27;98201;-78
2023/05/05 10:14:54;;;;;;;7.43;2.70;;;;;;;;;;5068727;27;98861;-80
2023/05/05 10:17:22;;;;;;;4.13;2.10;;;;;;;;;;5072348;27;99269;-78
2023/05/05 10:19:50;;;;;;;6.97;1.88;;;;;;;;;;5069194;27;98538;-77
2023/05/05 10:22:20;;;;;;;4.35;0.82;;;;;;;;;;5061552;27;99941;-78
2023/05/05 10:24:53;;;;;;;4.50;1.02;;;;;;;;;;5070815;27;98774;-79
2023/05/05 10:27:21;;;;;;;15.35;1.52;;;;;;;;;;5061363;27;98962;-78
2023/05/05 10:30:02;;;;;;;4.95;1.90;;;;;;;;;;5069254;27;98859;-79
2023/05/05 10:32:36;;;;;;;4.10;1.58;;;;;;;;;;5062438;27;98239;-80
2023/05/05 10:35:25;;;;;;;2.58;1.15;;;;;;;;;;5070146;27;99357;-82
2023/05/05 10:37:53;;;;;;;5.47;1.95;;;;;;;;;;5071235;27;98988;-82
2023/05/05 10:40:20;;;;;;;2.40;1.40;;;;;;;;;;5087385;27;98142;-79
2023/05/05 10:42:49;;;;;;;3.63;1.20;;;;;;;;;;5080951;27;97997;-81
2023/05/05 10:45:16;;;;;;;2.50;0.95;;;;;;;;;;5079859;27;98927;-79
2023/05/05 10:47:45;;;;;;;3.42;1.20;;;;;;;;;;5069661;27;98383;-80
2023/05/05 10:50:18;;;;;;;2.75;1.23;;;;;;;;;;5080178;27;99874;-80
2023/05/05 10:53:03;;;;;;;3.05;0.80;;;;;;;;;;5069653;27;98266;-80
2023/05/05 10:55:52;;;;;;;4.45;1.42;;;;;;;;;;5069004;27;98917;-78
2023/05/05 10:58:35;;;;;;;6.43;1.20;;;;;;;;;;5046845;27;99713;-81
2023/05/05 11:01:27;;;;;;;3.35;1.77;;;;;;;;;;5058570;27;98570;-79
2023/05/05 11:03:54;;;;;;;;;;;;;;;;;;5071640;27;98587;-78
2023/05/05 11:06:20;;;;;;;5.07;1.77;;;;;;;;;;5063170;27;123073;-80
2023/05/05 11:08:46;;;;;;;2.22;1.95;;;;;;;;;;5063980;27;99794;-80
2023/05/05 11:11:13;;;;;;;5.55;1.88;;;;;;;;;;5065286;27;100259;-79
2023/05/05 11:13:40;;;;;;;2.80;2.25;;;;;;;;;;5062702;27;98385;-80
2023/05/05 11:16:25;;;;;;;4.28;2.45;;;;;;;;;;5066100;27;99649;-80
2023/05/05 11:18:52;;;;;;;3.45;2.65;;;;;;;;;;5068671;27;99997;-81
2023/05/05 11:21:18;;;;;;;7.18;2.78;;;;;;;;;;5065160;27;98284;-79
2023/05/05 11:23:45;;;;;;;7.78;3.00;;;;;;;;;;5064246;27;101398;-80
2023/05/05 11:26:12;;;;;;;4.60;2.65;;;;;;;;;;5062053;27;99802;-81
2023/05/05 11:28:58;;;;;;;4.30;3.10;;;;;;;;;;5063981;27;99711;-81
2023/05/05 11:31:25;;;;;;;9.15;3.88;;;;;;;;;;5066797;27;101858;-79
2023/05/05 11:33:52;;;;;;;9.68;3.70;;;;;;;;;;5059986;27;98206;-80
2023/05/05 11:36:18;;;;;;;6.97;4.47;;;;;;;;;;5067163;27;98685;-80
2023/05/05 11:39:04;;;;;;;6.78;5.10;;;;;;;;;;5064807;27;99029;-80
2023/05/05 11:41:30;;;;;;;9.00;5.10;;;;;;;;;;5064310;27;98389;-80
2023/05/05 11:44:27;;;;;;;8.23;5.30;;;;;;;;;;5063834;27;98130;-81
2023/05/05 11:46:58;;;;;;;9.20;5.95;;;;;;;;;;5067860;27;99618;-81
2023/05/05 11:49:28;;;;;;;9.93;6.63;;;;;;;;;;5063583;27;99374;-81
2023/05/05 11:51:55;;;;;;;10.88;6.60;;;;;;;;;;5063406;27;100407;-79
2023/05/05 11:54:23;;;;;;;10.02;6.57;;;;;;;;;;5067877;27;98679;-81
2023/05/05 11:56:53;;;;;;;15.23;7.78;;;;;;;;;;5060945;27;98516;-80
2023/05/05 11:59:20;;;;;;;14.32;7.63;;;;;;;;;;5066876;27;99837;-81
2023/05/05 12:01:46;;;;;;;16.75;7.55;;;;;;;;;;5070959;27;98236;-80
2023/05/05 12:04:13;;;;;;;11.95;7.20;;;;;;;;;;5069582;27;101239;-81
2023/05/05 12:06:40;;;;;;;15.30;7.85;;;;;;;;;;5067940;27;100047;-79
2023/05/05 12:09:17;;;;;;;13.95;7.75;;;;;;;;;;5070579;27;98284;-81
2023/05/05 12:11:54;;;;;;;11.60;7.18;;;;;;;;;;5067119;27;98947;-79
2023/05/05 12:14:20;;;;;;;21.52;7.55;;;;;;;;;;5072196;27;99042;-80
2023/05/05 12:17:03;;;;;;;13.82;6.57;;;;;;;;;;5067654;27;99700;-79
2023/05/05 12:19:32;;;;;;;15.07;5.97;;;;;;;;;;5066476;27;101004;-79
2023/05/05 12:22:02;;;;;;;10.05;5.90;;;;;;;;;;5068854;27;98367;-80
2023/05/05 12:24:29;;;;;;;17.10;4.47;;;;;;;;;;5065275;27;99690;-79
2023/05/05 12:27:08;;;;;;;9.35;5.00;;;;;;;;;;5063809;27;99481;-81
2023/05/05 12:29:35;;;;;;;7.88;4.93;;;;;;;;;;5067548;27;99863;-79
2023/05/05 12:32:03;;;;;;;9.02;4.30;;;;;;;;;;5075217;27;98983;-81
2023/05/05 12:34:30;;;;;;;13.32;4.05;;;;;;;;;;5075697;27;98225;-79
2023/05/05 12:36:56;;;;;;;8.13;3.70;;;;;;;;;;5071733;27;99688;-80
2023/05/05 12:39:32;;;;;;;9.02;3.88;;;;;;;;;;5069920;27;100166;-79
2023/05/05 12:42:05;;;;;;;10.00;4.57;;;;;;;;;;5070799;27;98151;-79
2023/05/05 12:44:35;;;;;;;7.88;4.10;;;;;;;;;;5063814;27;98876;-80
2023/05/05 12:47:01;;;;;;;9.77;3.50;;;;;;;;;;5068414;27;99837;-80
2023/05/05 12:49:28;;;;;;;7.70;3.65;;;;;;;;;;5070744;27;98650;-79
2023/05/05 12:51:55;;;;;;;4.38;3.38;;;;;;;;;;5068419;27;101222;-79
2023/05/05 12:54:23;;;;;;;7.38;4.18;;;;;;;;;;5066027;27;99559;-81
2023/05/05 12:56:50;;;;;;;3.90;3.53;;;;;;;;;;5071447;27;98722;-80
2023/05/05 12:59:19;;;;;;;4.38;3.78;;;;;;;;;;5071216;27;99933;-79
2023/05/05 13:01:53;;;;;;;5.60;4.05;;;;;;;;;;5070704;27;98444;-79
2023/05/05 13:04:20;;;;;;;7.35;4.53;;;;;;;;;;5068879;27;99655;-81
2023/05/05 13:06:47;;;;;;;9.70;5.25;;;;;;;;;;5070249;27;99932;-79
2023/05/05 13:09:23;;;;;;;6.88;4.93;;;;;;;;;;5071120;27;98242;-80
2023/05/05 13:11:50;;;;;;;8.05;4.78;;;;;;;;;;5070619;27;100346;-82
2023/05/05 13:14:16;;;;;;;9.35;5.97;;;;;;;;;;5069522;27;101216;-79
2023/05/05 13:16:42;;;;;;;10.80;7.57;;;;;;;;;;5069777;27;99383;-81
2023/05/05 13:19:09;;;;;;;12.75;7.15;;;;;;;;;;5070637;27;100303;-80
2023/05/05 13:21:35;;;;;;;12.70;7.63;;;;;;;;;;5068856;27;98252;-80
2023/05/05 13:24:02;;;;;;;7.45;6.70;;;;;;;;;;5071591;27;99743;-79
2023/05/05 13:26:46;;;;;;;7.60;6.60;;;;;;;;;;5071520;27;100238;-80
2023/05/05 13:29:13;;;;;;;12.85;7.65;;;;;;;;;;5071147;27;98318;-79
2023/05/05 13:31:40;;;;;;;13.15;6.53;;;;;;;;;;5071032;27;98757;-80
2023/05/05 13:34:07;;;;;;;11.10;6.95;;;;;;;;;;5071187;27;100137;-80
2023/05/05 13:36:33;;;;;;;9.55;6.70;;;;;;;;;;5068895;27;98835;-80
2023/05/05 13:39:00;;;;;;;6.68;6.10;;;;;;;;;;5067145;27;99613;-80
2023/05/05 13:41:28;;;;;;;9.57;6.82;;;;;;;;;;5060895;27;100270;-80
2023/05/05 13:43:55;;;;;;;6.78;5.90;;;;;;;;;;5069725;27;99604;-82
2023/05/05 13:46:21;;;;;;;7.50;4.80;;;;;;;;;;5070171;27;100048;-81
2023/05/05 13:48:48;;;;;;;5.57;4.88;;;;;;;;;;5066757;27;98417;-80
2023/05/05 13:51:15;;;;;;;5.65;4.60;;;;;;;;;;5068825;27;99080;-79
2023/05/05 13:53:42;;;;;;;3.50;3.20;;;;;;;;;;5070538;27;99902;-79
2023/05/05 13:56:09;;;;;;;6.70;3.90;;;;;;;;;;5069053;27;98491;-79
2023/05/05 13:58:36;;;;;;;3.78;3.35;;;;;;;;;;5068584;27;99904;-79
2023/05/05 14:01:03;;;;;;;10.65;3.05;;;;;;;;;;5073995;27;100227;-78
2023/05/05 14:03:30;;;;;;;3.47;2.70;;;;;;;;;;5065656;27;99003;-79
2023/05/05 14:05:56;;;;;;;5.53;2.38;;;;;;;;;;5069150;27;101940;-79
2023/05/05 14:08:22;;;;;;;7.53;2.50;;;;;;;;;;5061510;27;98274;-79
2023/05/05 14:10:50;;;;;;;4.60;3.10;;;;;;;;;;5063141;27;98394;-79
2023/05/05 14:13:17;;;;;;;2.50;2.13;;;;;;;;;;5064538;27;100101;-79
2023/05/05 14:15:44;;;;;;;3.42;2.30;;;;;;;;;;5069898;27;98877;-79
2023/05/05 14:18:10;;;;;;;2.67;2.47;;;;;;;;;;5069245;27;98219;-79
2023/05/05 14:20:37;;;;;;;2.58;1.95;;;;;;;;;;5068558;27;99886;-78
2023/05/05 14:23:03;;;;;;;1.85;1.75;;;;;;;;;;5068619;27;99937;-79
2023/05/05 14:25:30;;;;;;;3.60;2.17;;;;;;;;;;5056417;27;99921;-78
2023/05/05 14:27:56;;;;;;;7.75;1.60;;;;;;;;;;5074645;27;99976;-77
2023/05/05 14:30:23;;;;;;;13.88;2.47;;;;;;;;;;5064888;27;99172;-80
2023/05/05 14:32:49;;;;;;;1.70;1.50;;;;;;;;;;5063388;27;99974;-80
2023/05/05 14:35:15;;;;;;;3.17;2.42;;;;;;;;;;5061054;27;98424;-79
2023/05/05 14:37:42;;;;;;;5.70;4.13;;;;;;;;;;5066842;27;99349;-81
2023/05/05 14:40:08;;;;;;;3.40;2.10;;;;;;;;;;5068820;27;99939;-82
2023/05/05 14:42:36;;;;;;;3.58;2.15;;;;;;;;;;5073016;27;99702;-82
2023/05/05 14:45:04;;;;;;;3.22;1.70;;;;;;;;;;5067424;27;99918;-79